Ama, LA

10:31 AM CDT on September 30, 2016 (GMT -0500)
APRSWXNET | | Change Station

Elev 14 ft 29.89 °N, 90.34 °W | Updated 36 minutes ago

Partly Cloudy
Partly Cloudy
75 °F
Feels Like 77 °F
N
1
Wind Variable Wind from ESE
Gusts 8.0 mph

Today
High -- | Low -- °F
--% Chance of Precip.
Yesterday
High -- | Low -- °F
Precip. -- in
Pressure 30.14 in
Visibility 10.0 miles
Clouds Few 25000 ft
Heat Index 77 °F
Dew Point 59 °F
Humidity 57%
Rainfall in
Snow Depth Not available.
6:54 AM 6:47 PM
Waning Crescent, 0% visible
METAR KMSY 301453Z 04009KT 10SM FEW250 26/13 A3013 RMK AO2 SLP207 T02560133 51015
Pressure 30.14 in
Visibility 10.0 miles
Clouds Few 25000 ft
Heat Index 77 °F
Dew Point 59 °F
Humidity 57%
Rainfall in
Snow Depth Not available.
6:54 AM 6:47 PM
Waning Crescent, 0% visible
METAR KMSY 301453Z 04009KT 10SM FEW250 26/13 A3013 RMK AO2 SLP207 T02560133 51015

10-Day Weather Forecast

Almanac

Astronomy

Sep. 30, 2016 Rise Set
Actual Time
Civil Twilight
Nautical Twilight
Astronomical Twilight
Moon
Length of Visible Light
Length of Day
Tomorrow will be .
, % of the Moon is Illuminated

Today's Extremes

State Highs State Lows

Community

WunderPhotos

Upload Photos

1,942,738 photos uploaded!

WunderBlog® & News

Nearby

Air Quality

  Air Quality AQ Index Pollutant
Not available.

Snow Depth

Station Depth Elevation

Earthquake Activity

City Distance Mag. Time & Date
Minimum magnitude displayed is 2.5.

Coastal Water Temperatures

Place Temperature

Stations

Nearby Weather Stations

Station Location Temp. Windchill Dew Point Humidity Wind Precip. Elev Updated Type
                   

Watches & Warnings

There are currently no watches in effect.